Time;durP1;ratioP1;P1;durP2;ratioP2;P2;SDS_P1;SDS_P2;PMS_P1;PMS_P2;Temp;Humidity;BMP_temperature;BMP_pressure;BME280_temperature;BME280_humidity;BME280_pressure;Samples;Min_cycle;Max_cycle;Signal;HPM_P1;HPM_P2
2022/04/07 00:00:48;;;;;;;1.30;1.20;;;;;;;;;;5022117;28;20021;-82
2022/04/07 00:03:14;;;;;;;2.05;1.10;;;;;;;;;;5000566;28;20419;-84
2022/04/07 00:05:40;;;;;;;1.00;1.00;;;;;;;;;;5017282;28;20125;-81
2022/04/07 00:08:05;;;;;;;2.50;1.25;;;;;;;;;;5016564;28;20040;-83
2022/04/07 00:10:31;;;;;;;1.20;1.10;;;;;;;;;;5018496;28;20030;-83
2022/04/07 00:12:57;;;;;;;1.48;1.30;;;;;;;;;;5007385;28;20026;-86
2022/04/07 00:15:23;;;;;;;1.23;1.15;;;;;;;;;;5018310;28;20040;-84
2022/04/07 00:17:49;;;;;;;2.28;1.20;;;;;;;;;;5000596;28;20400;-84
2022/04/07 00:20:14;;;;;;;0.93;0.93;;;;;;;;;;5019072;28;20025;-83
2022/04/07 00:22:41;;;;;;;1.83;1.30;;;;;;;;;;5006519;28;20507;-85
2022/04/07 00:25:07;;;;;;;1.60;1.40;;;;;;;;;;5017311;28;20057;-83
2022/04/07 00:27:32;;;;;;;1.38;1.27;;;;;;;;;;5031872;28;20025;-83
2022/04/07 00:29:57;;;;;;;0.98;0.98;;;;;;;;;;5002247;28;20021;-84
2022/04/07 00:32:23;;;;;;;1.23;1.10;;;;;;;;;;5018528;28;20029;-85
2022/04/07 00:34:54;;;;;;;0.90;0.90;;;;;;;;;;5001304;28;20076;-82
2022/04/07 00:37:22;;;;;;;1.70;1.60;;;;;;;;;;5020445;28;20026;-85
2022/04/07 00:39:48;;;;;;;2.58;1.40;;;;;;;;;;5023197;28;20025;-85
2022/04/07 00:42:14;;;;;;;1.40;1.30;;;;;;;;;;5022060;28;20401;-84
2022/04/07 00:44:39;;;;;;;1.15;1.15;;;;;;;;;;5034812;28;20028;-84
2022/04/07 00:47:05;;;;;;;1.27;1.20;;;;;;;;;;5018745;28;20029;-84
2022/04/07 00:49:31;;;;;;;2.10;1.50;;;;;;;;;;5031388;28;20092;-83
2022/04/07 00:51:56;;;;;;;1.30;1.20;;;;;;;;;;5031579;28;20065;-81
2022/04/07 00:54:22;;;;;;;1.15;1.13;;;;;;;;;;5012899;28;20091;-84
2022/04/07 00:56:47;;;;;;;1.40;1.30;;;;;;;;;;5029062;28;20025;-83
2022/04/07 00:59:16;;;;;;;1.10;1.10;;;;;;;;;;5034547;28;20032;-83
2022/04/07 01:01:42;;;;;;;1.60;1.33;;;;;;;;;;5037169;28;20345;-83
2022/04/07 01:04:08;;;;;;;1.15;1.05;;;;;;;;;;5037070;28;20072;-84
2022/04/07 01:06:33;;;;;;;1.45;1.00;;;;;;;;;;5029165;28;20447;-84
2022/04/07 01:08:59;;;;;;;1.05;0.98;;;;;;;;;;5036745;28;20033;-84
2022/04/07 01:11:29;;;;;;;2.42;1.05;;;;;;;;;;5019216;28;20388;-82
2022/04/07 01:13:54;;;;;;;1.00;1.00;;;;;;;;;;5037595;28;20027;-82
2022/04/07 01:16:25;;;;;;;0.82;0.80;;;;;;;;;;5007247;28;20104;-83
2022/04/07 01:18:51;;;;;;;1.40;1.02;;;;;;;;;;5021446;28;20586;-83
2022/04/07 01:21:17;;;;;;;0.85;0.85;;;;;;;;;;5017156;28;20058;-83
2022/04/07 01:24:04;;;;;;;0.70;0.70;;;;;;;;;;5029109;28;20053;-82
2022/04/07 01:26:32;;;;;;;0.70;0.70;;;;;;;;;;5003135;28;20068;-83
2022/04/07 01:29:00;;;;;;;1.75;0.90;;;;;;;;;;5021853;28;20029;-83
2022/04/07 01:31:26;;;;;;;3.03;0.80;;;;;;;;;;5028840;28;20022;-84
2022/04/07 01:33:52;;;;;;;0.93;0.93;;;;;;;;;;5016533;28;20030;-83
2022/04/07 01:36:18;;;;;;;0.82;0.73;;;;;;;;;;5034194;28;20499;-83
2022/04/07 01:38:45;;;;;;;0.65;0.65;;;;;;;;;;5017674;28;20026;-84
2022/04/07 01:41:11;;;;;;;0.95;0.95;;;;;;;;;;5024543;28;20380;-83
2022/04/07 01:43:39;;;;;;;0.93;0.90;;;;;;;;;;5016776;28;20021;-84
2022/04/07 01:46:05;;;;;;;0.90;0.90;;;;;;;;;;5018865;28;20030;-84
2022/04/07 01:48:30;;;;;;;0.82;0.82;;;;;;;;;;5017174;28;20392;-83
2022/04/07 01:50:57;;;;;;;1.20;1.00;;;;;;;;;;5017510;28;20038;-85
2022/04/07 01:53:24;;;;;;;0.77;0.77;;;;;;;;;;5028149;28;20032;-83
2022/04/07 01:55:51;;;;;;;0.85;0.85;;;;;;;;;;5011241;28;20093;-83
2022/04/07 01:58:18;;;;;;;0.85;0.85;;;;;;;;;;5025092;28;20293;-84
2022/04/07 02:00:44;;;;;;;3.60;1.27;;;;;;;;;;5021298;28;20026;-84
2022/04/07 02:03:10;;;;;;;0.63;0.63;;;;;;;;;;5034997;28;20026;-83
2022/04/07 02:05:36;;;;;;;0.73;0.73;;;;;;;;;;5030312;28;20038;-84
2022/04/07 02:08:01;;;;;;;0.82;0.82;;;;;;;;;;5017919;28;20025;-82
2022/04/07 02:10:28;;;;;;;0.80;0.77;;;;;;;;;;5016822;28;20355;-83
2022/04/07 02:12:54;;;;;;;3.10;0.88;;;;;;;;;;5036113;28;20036;-82
2022/04/07 02:15:19;;;;;;;1.05;0.70;;;;;;;;;;5030166;28;20057;-83
2022/04/07 02:17:45;;;;;;;0.57;0.57;;;;;;;;;;5029290;28;20499;-83
2022/04/07 02:20:10;;;;;;;0.65;0.65;;;;;;;;;;5015896;28;20362;-83
2022/04/07 02:22:36;;;;;;;2.78;0.70;;;;;;;;;;5005832;28;20468;-83
2022/04/07 02:25:02;;;;;;;0.70;0.70;;;;;;;;;;5028076;28;20021;-83
2022/04/07 02:27:38;;;;;;;0.70;0.70;;;;;;;;;;5027358;28;20072;-83
2022/04/07 02:30:06;;;;;;;0.70;0.70;;;;;;;;;;5016282;28;20033;-83
2022/04/07 02:32:31;;;;;;;1.85;0.65;;;;;;;;;;4997594;28;20033;-83
2022/04/07 02:34:57;;;;;;;1.55;0.65;;;;;;;;;;5031182;28;20030;-83
2022/04/07 02:37:22;;;;;;;0.63;0.63;;;;;;;;;;5035667;28;20486;-85
2022/04/07 02:39:48;;;;;;;2.13;1.02;;;;;;;;;;5026710;28;20067;-84
2022/04/07 02:42:13;;;;;;;1.67;0.80;;;;;;;;;;5018734;28;20037;-85
2022/04/07 02:44:39;;;;;;;0.95;0.70;;;;;;;;;;5015762;28;20068;-85
2022/04/07 02:47:04;;;;;;;2.05;0.90;;;;;;;;;;5016801;28;20033;-85
2022/04/07 02:49:30;;;;;;;0.70;0.70;;;;;;;;;;5015651;28;20037;-86
2022/04/07 02:51:55;;;;;;;1.98;0.80;;;;;;;;;;5017122;28;20018;-86
2022/04/07 02:54:20;;;;;;;1.55;1.00;;;;;;;;;;5015787;28;20449;-85
2022/04/07 02:56:47;;;;;;;1.17;1.00;;;;;;;;;;5034735;28;20021;-84
2022/04/07 02:59:13;;;;;;;0.80;0.80;;;;;;;;;;5023699;28;20036;-85
2022/04/07 03:01:38;;;;;;;4.40;1.00;;;;;;;;;;5016974;28;20057;-83
2022/04/07 03:04:03;;;;;;;0.95;0.85;;;;;;;;;;5017051;28;20473;-85
2022/04/07 03:06:29;;;;;;;1.58;0.90;;;;;;;;;;5024583;28;20029;-85
2022/04/07 03:08:54;;;;;;;0.70;0.70;;;;;;;;;;5032451;28;20036;-85
2022/04/07 03:11:20;;;;;;;1.10;1.00;;;;;;;;;;5019168;28;20040;-85
2022/04/07 03:13:45;;;;;;;0.57;0.57;;;;;;;;;;5027689;28;20033;-85
2022/04/07 03:16:11;;;;;;;0.93;0.93;;;;;;;;;;5004210;28;20531;-85
2022/04/07 03:18:36;;;;;;;0.80;0.80;;;;;;;;;;5012910;28;20388;-85
2022/04/07 03:21:02;;;;;;;1.05;0.93;;;;;;;;;;5025920;28;20021;-84
2022/04/07 03:23:28;;;;;;;0.73;0.73;;;;;;;;;;5004443;28;20025;-85
2022/04/07 03:25:53;;;;;;;3.03;0.98;;;;;;;;;;5034550;28;20121;-83
2022/04/07 03:28:19;;;;;;;1.67;1.42;;;;;;;;;;5013496;28;20025;-85
2022/04/07 03:30:44;;;;;;;0.70;0.70;;;;;;;;;;5020042;28;20075;-85
2022/04/07 03:33:10;;;;;;;0.70;0.70;;;;;;;;;;5036002;28;20060;-82
2022/04/07 03:35:36;;;;;;;1.20;0.93;;;;;;;;;;5039617;28;20021;-84
2022/04/07 03:38:03;;;;;;;1.48;0.90;;;;;;;;;;5036080;28;20070;-84
2022/04/07 03:40:28;;;;;;;2.72;0.80;;;;;;;;;;5025233;28;20068;-85
2022/04/07 03:42:53;;;;;;;2.00;0.95;;;;;;;;;;5002285;28;20502;-83
2022/04/07 03:45:19;;;;;;;1.75;1.00;;;;;;;;;;5031574;28;20031;-84
2022/04/07 03:47:45;;;;;;;0.77;0.70;;;;;;;;;;5040976;28;20033;-85
2022/04/07 03:50:10;;;;;;;0.93;0.80;;;;;;;;;;5027519;28;20068;-84
2022/04/07 03:52:36;;;;;;;0.80;0.80;;;;;;;;;;5006069;28;20051;-84
2022/04/07 03:55:03;;;;;;;1.00;0.90;;;;;;;;;;5037619;28;20538;-84
2022/04/07 03:57:28;;;;;;;1.77;0.95;;;;;;;;;;5034907;28;20067;-84
2022/04/07 03:59:54;;;;;;;1.55;1.10;;;;;;;;;;5037402;28;20043;-85
2022/04/07 04:02:19;;;;;;;1.45;1.20;;;;;;;;;;5021796;28;20026;-87
2022/04/07 04:04:44;;;;;;;1.17;0.82;;;;;;;;;;5019992;28;20038;-85
2022/04/07 04:07:10;;;;;;;1.15;1.05;;;;;;;;;;5003570;28;20045;-84
2022/04/07 04:09:35;;;;;;;1.48;1.02;;;;;;;;;;5037428;28;20045;-85
2022/04/07 04:12:00;;;;;;;1.00;1.00;;;;;;;;;;5040155;28;20029;-84
2022/04/07 04:14:26;;;;;;;1.45;1.00;;;;;;;;;;5006675;28;20030;-86
2022/04/07 04:16:51;;;;;;;0.80;0.80;;;;;;;;;;5004578;28;20045;-85
2022/04/07 04:19:17;;;;;;;1.02;1.00;;;;;;;;;;5018677;28;20057;-85
2022/04/07 04:21:42;;;;;;;0.90;0.90;;;;;;;;;;5019558;28;20037;-85
2022/04/07 04:24:10;;;;;;;0.90;0.90;;;;;;;;;;5030494;28;20432;-86
2022/04/07 04:26:35;;;;;;;0.95;0.88;;;;;;;;;;5014273;28;20029;-85
2022/04/07 04:29:01;;;;;;;1.10;1.00;;;;;;;;;;5032996;28;20310;-85
2022/04/07 04:31:26;;;;;;;1.88;1.10;;;;;;;;;;5026123;28;20030;-82
2022/04/07 04:33:52;;;;;;;1.00;0.90;;;;;;;;;;5016656;28;20041;-82
2022/04/07 04:36:17;;;;;;;2.35;0.82;;;;;;;;;;5014406;28;20013;-82
2022/04/07 04:38:43;;;;;;;1.00;1.00;;;;;;;;;;5028942;28;20108;-82
2022/04/07 04:41:09;;;;;;;2.05;1.10;;;;;;;;;;5025418;28;20104;-82
2022/04/07 04:43:34;;;;;;;1.08;1.00;;;;;;;;;;5007058;28;20472;-81
2022/04/07 04:46:00;;;;;;;2.50;1.05;;;;;;;;;;5022133;28;20034;-82
2022/04/07 04:48:25;;;;;;;0.85;0.85;;;;;;;;;;5001445;28;20036;-82
2022/04/07 04:50:50;;;;;;;1.25;1.00;;;;;;;;;;5024343;28;20488;-83
2022/04/07 04:53:16;;;;;;;1.45;1.10;;;;;;;;;;5034510;28;20108;-82
2022/04/07 04:55:41;;;;;;;1.08;0.98;;;;;;;;;;5032847;28;20028;-83
2022/04/07 04:58:06;;;;;;;0.85;0.85;;;;;;;;;;5023767;28;20025;-82
2022/04/07 05:00:32;;;;;;;1.02;0.90;;;;;;;;;;5024343;28;20108;-84
2022/04/07 05:02:57;;;;;;;1.25;1.15;;;;;;;;;;5027671;28;20033;-83
2022/04/07 05:05:22;;;;;;;1.30;1.20;;;;;;;;;;5032297;28;20028;-82
2022/04/07 05:07:48;;;;;;;2.33;1.10;;;;;;;;;;5011836;28;20018;-82
2022/04/07 05:10:14;;;;;;;0.90;0.70;;;;;;;;;;5014116;28;20040;-82
2022/04/07 05:12:40;;;;;;;1.05;1.00;;;;;;;;;;5027129;28;20030;-84
2022/04/07 05:15:07;;;;;;;0.68;0.68;;;;;;;;;;5023799;28;20063;-82
2022/04/07 05:17:38;;;;;;;5.97;1.20;;;;;;;;;;5028593;28;20013;-85
2022/04/07 05:20:04;;;;;;;0.80;0.80;;;;;;;;;;5000542;28;20036;-81
2022/04/07 05:22:29;;;;;;;1.35;0.90;;;;;;;;;;5017770;28;20431;-82
2022/04/07 05:24:54;;;;;;;0.82;0.82;;;;;;;;;;5035700;28;20542;-82
2022/04/07 05:27:20;;;;;;;1.55;0.80;;;;;;;;;;5024014;28;20506;-82
2022/04/07 05:29:45;;;;;;;0.45;0.45;;;;;;;;;;5026563;28;20034;-81
2022/04/07 05:32:11;;;;;;;0.95;0.95;;;;;;;;;;5018440;28;20080;-81
2022/04/07 05:34:36;;;;;;;0.63;0.63;;;;;;;;;;5022595;28;20057;-81
2022/04/07 05:37:04;;;;;;;0.80;0.70;;;;;;;;;;5031901;28;20156;-82
2022/04/07 05:39:30;;;;;;;0.63;0.60;;;;;;;;;;5037288;28;20104;-81
2022/04/07 05:41:55;;;;;;;0.70;0.70;;;;;;;;;;5032201;28;20079;-81
2022/04/07 05:44:21;;;;;;;1.13;1.05;;;;;;;;;;5009531;28;20468;-81
2022/04/07 05:46:46;;;;;;;1.13;0.80;;;;;;;;;;5033363;28;20227;-81
2022/04/07 05:49:11;;;;;;;0.98;0.70;;;;;;;;;;5037173;28;20032;-83
2022/04/07 05:51:38;;;;;;;3.03;0.73;;;;;;;;;;5015216;28;20029;-83
2022/04/07 05:54:03;;;;;;;1.13;0.90;;;;;;;;;;5027133;28;20026;-83
2022/04/07 05:56:29;;;;;;;1.50;0.70;;;;;;;;;;5029418;28;20027;-83
2022/04/07 05:58:54;;;;;;;0.52;0.52;;;;;;;;;;5037313;28;20033;-83
2022/04/07 06:01:20;;;;;;;0.60;0.60;;;;;;;;;;5019482;28;20034;-83
2022/04/07 06:03:45;;;;;;;1.30;0.70;;;;;;;;;;5037024;28;20506;-83
2022/04/07 06:06:11;;;;;;;0.90;0.90;;;;;;;;;;5036053;28;20029;-82
2022/04/07 06:08:36;;;;;;;0.52;0.52;;;;;;;;;;5019716;28;20052;-83
2022/04/07 06:11:01;;;;;;;0.60;0.60;;;;;;;;;;5036925;28;20108;-83
2022/04/07 06:13:27;;;;;;;0.70;0.70;;;;;;;;;;5037052;28;20022;-82
2022/04/07 06:15:52;;;;;;;0.60;0.60;;;;;;;;;;5028555;28;20130;-82
2022/04/07 06:18:17;;;;;;;1.50;0.60;;;;;;;;;;5017931;28;20022;-82
2022/04/07 06:20:46;;;;;;;0.55;0.55;;;;;;;;;;5007394;28;20540;-81
2022/04/07 06:23:12;;;;;;;0.45;0.40;;;;;;;;;;5025663;28;20040;-82
2022/04/07 06:25:37;;;;;;;0.60;0.60;;;;;;;;;;5031975;28;20033;-82
2022/04/07 06:28:04;;;;;;;0.40;0.40;;;;;;;;;;5034216;28;20025;-82
2022/04/07 06:30:30;;;;;;;0.50;0.50;;;;;;;;;;5037269;28;20030;-82
2022/04/07 06:32:56;;;;;;;0.50;0.50;;;;;;;;;;5042435;28;20038;-82
2022/04/07 06:35:22;;;;;;;0.82;0.70;;;;;;;;;;5035199;28;20024;-82
2022/04/07 06:37:56;;;;;;;0.43;0.43;;;;;;;;;;5033226;28;20053;-81
2022/04/07 06:40:29;;;;;;;1.75;0.70;;;;;;;;;;5036988;28;20033;-82
2022/04/07 06:42:56;;;;;;;0.60;0.60;;;;;;;;;;5046718;28;20033;-81
2022/04/07 06:45:22;;;;;;;0.70;0.60;;;;;;;;;;5031687;28;20032;-83
2022/04/07 06:47:47;;;;;;;1.20;0.50;;;;;;;;;;5032445;28;20030;-80
2022/04/07 06:50:15;;;;;;;3.90;0.70;;;;;;;;;;5030945;28;20026;-80
2022/04/07 06:52:42;;;;;;;0.47;0.47;;;;;;;;;;5038894;28;20029;-80
2022/04/07 06:55:08;;;;;;;0.82;0.68;;;;;;;;;;5051836;28;20091;-80
2022/04/07 06:57:55;;;;;;;1.88;0.68;;;;;;;;;;5049740;28;20384;-82
2022/04/07 07:00:26;;;;;;;1.52;0.80;;;;;;;;;;5030921;28;20021;-82
2022/04/07 07:02:53;;;;;;;0.32;0.32;;;;;;;;;;5031600;28;20070;-83
2022/04/07 07:05:19;;;;;;;0.90;0.63;;;;;;;;;;5039848;28;20030;-84
2022/04/07 07:07:45;;;;;;;0.50;0.50;;;;;;;;;;5020280;28;20034;-85
2022/04/07 07:10:11;;;;;;;2.20;0.50;;;;;;;;;;5027697;28;20022;-83
2022/04/07 07:12:38;;;;;;;0.73;0.47;;;;;;;;;;5005235;28;20133;-83
2022/04/07 07:15:04;;;;;;;0.50;0.50;;;;;;;;;;5021305;28;20026;-83
2022/04/07 07:17:33;;;;;;;0.55;0.55;;;;;;;;;;5019815;28;20021;-81
2022/04/07 07:20:06;;;;;;;0.63;0.63;;;;;;;;;;5021180;28;20068;-82
2022/04/07 07:22:31;;;;;;;0.95;0.52;;;;;;;;;;5032004;28;20052;-83
2022/04/07 07:24:57;;;;;;;1.35;0.60;;;;;;;;;;5040145;28;20021;-83
2022/04/07 07:27:23;;;;;;;2.20;0.50;;;;;;;;;;5032609;28;20029;-83
2022/04/07 07:29:48;;;;;;;0.60;0.60;;;;;;;;;;5040001;28;20017;-83
2022/04/07 07:32:13;;;;;;;1.10;0.70;;;;;;;;;;5040607;28;20029;-83
2022/04/07 07:34:39;;;;;;;0.52;0.52;;;;;;;;;;5040570;28;20025;-83
2022/04/07 07:37:05;;;;;;;1.45;0.57;;;;;;;;;;5041147;28;20436;-83
2022/04/07 07:39:30;;;;;;;1.30;0.40;;;;;;;;;;5040349;28;20464;-82
2022/04/07 07:41:55;;;;;;;0.40;0.40;;;;;;;;;;5020483;28;20069;-81
2022/04/07 07:44:21;;;;;;;2.60;0.65;;;;;;;;;;5010892;28;20030;-83
2022/04/07 07:46:46;;;;;;;0.55;0.55;;;;;;;;;;5007190;28;20022;-82
2022/04/07 07:49:11;;;;;;;0.82;0.70;;;;;;;;;;5015823;28;20037;-82
2022/04/07 07:51:38;;;;;;;0.90;0.38;;;;;;;;;;5010360;28;20021;-83
2022/04/07 07:54:04;;;;;;;0.40;0.40;;;;;;;;;;5024684;28;20037;-82
2022/04/07 07:56:29;;;;;;;2.30;0.60;;;;;;;;;;5040067;28;20077;-82
2022/04/07 07:58:55;;;;;;;0.40;0.40;;;;;;;;;;5042736;28;20053;-84
2022/04/07 08:01:20;;;;;;;1.85;0.63;;;;;;;;;;5042871;28;20087;-83
2022/04/07 08:03:45;;;;;;;0.65;0.65;;;;;;;;;;5043250;28;20410;-82
2022/04/07 08:06:11;;;;;;;0.30;0.30;;;;;;;;;;5040634;28;20049;-83
2022/04/07 08:08:36;;;;;;;2.75;0.75;;;;;;;;;;5042191;28;20022;-83
2022/04/07 08:11:02;;;;;;;0.40;0.40;;;;;;;;;;5042404;28;20033;-82
2022/04/07 08:13:27;;;;;;;2.75;0.63;;;;;;;;;;5024279;28;20025;-83
2022/04/07 08:15:52;;;;;;;0.60;0.50;;;;;;;;;;5037012;28;20141;-83
2022/04/07 08:18:18;;;;;;;1.33;0.60;;;;;;;;;;5042015;28;20041;-82
2022/04/07 08:20:43;;;;;;;0.60;0.60;;;;;;;;;;5040820;28;20025;-82
2022/04/07 08:23:09;;;;;;;0.63;0.43;;;;;;;;;;5033384;28;20060;-83
2022/04/07 08:25:34;;;;;;;0.30;0.30;;;;;;;;;;5037317;28;21680;-83
2022/04/07 08:28:00;;;;;;;1.75;0.60;;;;;;;;;;5037343;28;20530;-82
2022/04/07 08:30:25;;;;;;;0.73;0.70;;;;;;;;;;5040618;28;20040;-83
2022/04/07 08:32:50;;;;;;;0.77;0.68;;;;;;;;;;5022228;28;20029;-82
2022/04/07 08:35:16;;;;;;;2.90;0.60;;;;;;;;;;5038718;28;20028;-82
2022/04/07 08:37:41;;;;;;;1.15;0.50;;;;;;;;;;5031315;28;20026;-83
2022/04/07 08:40:07;;;;;;;1.75;0.68;;;;;;;;;;5040284;28;20071;-82
2022/04/07 08:42:34;;;;;;;0.73;0.50;;;;;;;;;;5040061;28;20022;-84
2022/04/07 08:45:00;;;;;;;1.55;0.60;;;;;;;;;;5020963;28;20420;-83
2022/04/07 08:47:25;;;;;;;1.35;0.82;;;;;;;;;;5019979;28;20037;-83
2022/04/07 08:49:51;;;;;;;0.57;0.57;;;;;;;;;;5001902;28;20022;-83
2022/04/07 08:52:18;;;;;;;1.17;0.55;;;;;;;;;;5015311;28;20384;-83
2022/04/07 08:54:47;;;;;;;1.90;0.63;;;;;;;;;;5032511;28;20029;-83
2022/04/07 08:57:14;;;;;;;0.30;0.30;;;;;;;;;;5028520;28;20018;-82
2022/04/07 08:59:39;;;;;;;3.65;1.20;;;;;;;;;;5039376;28;20025;-83
2022/04/07 09:02:05;;;;;;;0.43;0.40;;;;;;;;;;5039267;28;20079;-83
2022/04/07 09:04:35;;;;;;;2.15;0.50;;;;;;;;;;5039407;28;20021;-83
2022/04/07 09:07:01;;;;;;;0.40;0.40;;;;;;;;;;5037204;28;20030;-83
2022/04/07 09:09:31;;;;;;;0.43;0.32;;;;;;;;;;5038697;28;20095;-83
2022/04/07 09:11:56;;;;;;;0.40;0.40;;;;;;;;;;5025598;28;20060;-82
2022/04/07 09:14:22;;;;;;;1.48;0.60;;;;;;;;;;5040379;28;20456;-82
2022/04/07 09:16:54;;;;;;;0.40;0.40;;;;;;;;;;5053742;28;20017;-83
2022/04/07 09:19:21;;;;;;;0.43;0.43;;;;;;;;;;5052806;28;20051;-84
2022/04/07 09:21:46;;;;;;;1.95;0.45;;;;;;;;;;5055892;28;20033;-82
2022/04/07 09:24:12;;;;;;;1.60;0.40;;;;;;;;;;5037126;28;20026;-82
2022/04/07 09:26:43;;;;;;;0.93;0.30;;;;;;;;;;5051298;28;20077;-83
2022/04/07 09:29:10;;;;;;;4.22;0.57;;;;;;;;;;5043038;28;20037;-84
2022/04/07 09:31:40;;;;;;;2.88;0.50;;;;;;;;;;5039918;28;20049;-84
2022/04/07 09:34:06;;;;;;;0.52;0.40;;;;;;;;;;5003071;28;20048;-82
2022/04/07 09:36:33;;;;;;;0.63;0.52;;;;;;;;;;5039483;28;20053;-84
2022/04/07 09:39:00;;;;;;;0.50;0.50;;;;;;;;;;5039250;28;20036;-83
2022/04/07 09:41:28;;;;;;;0.30;0.30;;;;;;;;;;5039174;28;20025;-82
2022/04/07 09:43:58;;;;;;;0.52;0.50;;;;;;;;;;5003672;28;20025;-83
2022/04/07 09:46:35;;;;;;;0.75;0.68;;;;;;;;;;5113900;27;20397;-83
2022/04/07 09:49:09;;;;;;;0.50;0.40;;;;;;;;;;5099176;28;20036;-83
2022/04/07 09:51:46;;;;;;;0.47;0.47;;;;;;;;;;5103638;28;20024;-85
2022/04/07 09:54:16;;;;;;;1.00;0.60;;;;;;;;;;5096265;28;20470;-82
2022/04/07 09:56:43;;;;;;;0.50;0.50;;;;;;;;;;5099669;22;20394;-84
2022/04/07 09:59:09;;;;;;;0.40;0.40;;;;;;;;;;5092583;28;20036;-85
2022/04/07 10:01:39;;;;;;;0.52;0.52;;;;;;;;;;5093627;28;20030;-84
2022/04/07 10:04:06;;;;;;;0.40;0.40;;;;;;;;;;5090599;28;20099;-84
2022/04/07 10:06:33;;;;;;;0.55;0.43;;;;;;;;;;5092021;28;20020;-81
2022/04/07 10:09:01;;;;;;;1.95;0.47;;;;;;;;;;5063941;28;20031;-81
2022/04/07 10:11:29;;;;;;;0.63;0.47;;;;;;;;;;5067033;28;20357;-84
2022/04/07 10:13:56;;;;;;;0.32;0.32;;;;;;;;;;5086243;28;20031;-84
2022/04/07 10:16:22;;;;;;;0.73;0.32;;;;;;;;;;5088591;28;20048;-84
2022/04/07 10:18:58;;;;;;;0.45;0.45;;;;;;;;;;5068354;28;20027;-83
2022/04/07 10:21:43;;;;;;;0.40;0.40;;;;;;;;;;5068089;28;20044;-83
2022/04/07 10:24:33;;;;;;;1.80;0.70;;;;;;;;;;5065127;28;20029;-82
2022/04/07 10:27:09;;;;;;;1.98;0.60;;;;;;;;;;5088165;28;20032;-82
2022/04/07 10:29:37;;;;;;;2.63;0.50;;;;;;;;;;5078772;28;20028;-83
2022/04/07 10:32:09;;;;;;;0.40;0.40;;;;;;;;;;5098075;28;20533;-82
2022/04/07 10:34:34;;;;;;;0.65;0.60;;;;;;;;;;5098045;28;20020;-82
2022/04/07 10:37:06;;;;;;;0.68;0.40;;;;;;;;;;5087776;28;20024;-82
2022/04/07 10:39:35;;;;;;;0.20;0.20;;;;;;;;;;5069387;28;20024;-83
2022/04/07 10:42:01;;;;;;;1.63;0.52;;;;;;;;;;5088003;28;20391;-82
2022/04/07 10:44:27;;;;;;;2.83;0.60;;;;;;;;;;5068510;28;20025;-83
2022/04/07 10:47:03;;;;;;;0.40;0.40;;;;;;;;;;5062389;28;20021;-83
2022/04/07 10:49:30;;;;;;;0.50;0.50;;;;;;;;;;5079988;28;20036;-83
2022/04/07 10:52:27;;;;;;;1.17;0.40;;;;;;;;;;5085243;28;20497;-82
2022/04/07 10:55:12;;;;;;;0.65;0.38;;;;;;;;;;5075250;28;20024;-82
2022/04/07 10:58:14;;;;;;;0.73;0.43;;;;;;;;;;5053417;28;20052;-84
2022/04/07 11:00:39;;;;;;;;;;;;;;;;;;5069899;28;20108;-82
2022/04/07 11:03:15;;;;;;;0.30;0.30;;;;;;;;;;5052651;28;19962;-85
2022/04/07 11:06:00;;;;;;;0.65;0.50;;;;;;;;;;5052157;28;20501;-85
2022/04/07 11:08:26;;;;;;;1.98;0.40;;;;;;;;;;5046584;28;20071;-83
2022/04/07 11:10:53;;;;;;;0.55;0.40;;;;;;;;;;5044011;28;20025;-83
2022/04/07 11:13:50;;;;;;;0.30;0.30;;;;;;;;;;5052753;28;20028;-83
2022/04/07 11:16:48;;;;;;;6.22;0.30;;;;;;;;;;5060599;28;20016;-89
2022/04/07 11:19:13;;;;;;;0.75;0.43;;;;;;;;;;5063214;28;20033;-82
2022/04/07 11:21:49;;;;;;;0.43;0.43;;;;;;;;;;5081483;28;20029;-82
2022/04/07 11:24:23;;;;;;;0.40;0.40;;;;;;;;;;5073167;28;20035;-82
2022/04/07 11:26:51;;;;;;;3.65;0.40;;;;;;;;;;5080132;28;20032;-80
2022/04/07 11:29:31;;;;;;;0.10;0.10;;;;;;;;;;5079888;28;20021;-81
2022/04/07 11:32:06;;;;;;;0.28;0.28;;;;;;;;;;5063293;28;20028;-81
2022/04/07 11:34:41;;;;;;;0.22;0.22;;;;;;;;;;5059553;28;20024;-83
2022/04/07 11:37:12;;;;;;;0.63;0.40;;;;;;;;;;5073566;28;20032;-81
2022/04/07 11:39:43;;;;;;;0.38;0.30;;;;;;;;;;5080316;28;20028;-81
2022/04/07 11:42:09;;;;;;;1.75;0.40;;;;;;;;;;5080825;28;20020;-82
2022/04/07 11:44:34;;;;;;;0.25;0.25;;;;;;;;;;5080047;28;20077;-79
2022/04/07 11:47:00;;;;;;;1.17;0.35;;;;;;;;;;5080609;28;20063;-82
2022/04/07 11:49:28;;;;;;;0.20;0.20;;;;;;;;;;5080480;28;20025;-81
2022/04/07 11:51:53;;;;;;;1.70;0.20;;;;;;;;;;5074482;28;20056;-80
2022/04/07 11:54:18;;;;;;;0.30;0.30;;;;;;;;;;5068569;28;20021;-82
2022/04/07 11:56:44;;;;;;;0.50;0.40;;;;;;;;;;5062528;28;20056;-81
2022/04/07 11:59:11;;;;;;;0.40;0.30;;;;;;;;;;5060018;28;20112;-81
2022/04/07 12:01:43;;;;;;;1.60;0.35;;;;;;;;;;5060353;28;20059;-83
2022/04/07 12:04:10;;;;;;;1.33;0.40;;;;;;;;;;5058209;28;20020;-80
2022/04/07 12:06:37;;;;;;;0.85;0.35;;;;;;;;;;5071749;28;20032;-82
2022/04/07 12:09:05;;;;;;;3.40;0.45;;;;;;;;;;5060452;28;20033;-82
2022/04/07 12:11:33;;;;;;;0.10;0.10;;;;;;;;;;5058324;28;20029;-83
2022/04/07 12:14:00;;;;;;;0.30;0.30;;;;;;;;;;5058501;28;20123;-84
2022/04/07 12:16:26;;;;;;;0.20;0.20;;;;;;;;;;5069007;28;20016;-82
2022/04/07 12:18:56;;;;;;;0.30;0.30;;;;;;;;;;5071049;28;20036;-82
2022/04/07 12:21:23;;;;;;;1.23;0.30;;;;;;;;;;5062370;28;20051;-81
2022/04/07 12:24:08;;;;;;;0.20;0.20;;;;;;;;;;5069288;28;20095;-81
2022/04/07 12:26:45;;;;;;;0.60;0.43;;;;;;;;;;5064285;28;20088;-82
2022/04/07 12:29:18;;;;;;;0.32;0.32;;;;;;;;;;5060115;28;20116;-80
2022/04/07 12:31:44;;;;;;;0.47;0.30;;;;;;;;;;5061517;28;20116;-81
2022/04/07 12:34:16;;;;;;;0.20;0.20;;;;;;;;;;5061895;28;20056;-83
2022/04/07 12:36:42;;;;;;;;;;;;;;;;;;5072222;28;20029;-78
2022/04/07 12:39:12;;;;;;;6.80;0.40;;;;;;;;;;5080383;28;20269;-83
2022/04/07 12:41:37;;;;;;;0.20;0.20;;;;;;;;;;5085206;28;20020;-82
2022/04/07 12:44:04;;;;;;;0.45;0.35;;;;;;;;;;5065857;28;20036;-83
2022/04/07 12:46:48;;;;;;;2.30;0.22;;;;;;;;;;5083275;28;20063;-81
2022/04/07 12:49:14;;;;;;;0.52;0.45;;;;;;;;;;5062448;28;20032;-81
2022/04/07 12:51:41;;;;;;;0.40;0.40;;;;;;;;;;5080279;28;20098;-83
2022/04/07 12:54:14;;;;;;;0.30;0.30;;;;;;;;;;5071594;28;20371;-83
2022/04/07 12:56:43;;;;;;;0.57;0.57;;;;;;;;;;5055472;28;20025;-82
2022/04/07 12:59:11;;;;;;;0.63;0.40;;;;;;;;;;5059588;28;20048;-82
2022/04/07 13:01:37;;;;;;;5.38;0.43;;;;;;;;;;5060229;28;20031;-83
2022/04/07 13:04:04;;;;;;;0.50;0.30;;;;;;;;;;5060320;28;20025;-82
2022/04/07 13:06:32;;;;;;;0.35;0.35;;;;;;;;;;5060052;28;20112;-81
2022/04/07 13:08:57;;;;;;;1.13;0.30;;;;;;;;;;5077209;28;20035;-83
2022/04/07 13:11:31;;;;;;;1.45;0.60;;;;;;;;;;5080230;28;20024;-83
2022/04/07 13:13:56;;;;;;;0.47;0.25;;;;;;;;;;5060513;28;20084;-83
2022/04/07 13:16:21;;;;;;;0.45;0.45;;;;;;;;;;5042314;28;20056;-83
2022/04/07 13:18:47;;;;;;;3.50;0.40;;;;;;;;;;5056430;28;20088;-82
2022/04/07 13:21:12;;;;;;;0.28;0.28;;;;;;;;;;5061658;28;20444;-81
2022/04/07 13:23:37;;;;;;;0.10;0.10;;;;;;;;;;5053768;28;20162;-81
2022/04/07 13:26:03;;;;;;;0.30;0.30;;;;;;;;;;5079321;28;20017;-82
2022/04/07 13:28:28;;;;;;;0.38;0.38;;;;;;;;;;5061506;28;20078;-81
2022/04/07 13:30:56;;;;;;;0.35;0.35;;;;;;;;;;5058867;28;20127;-81
2022/04/07 13:33:22;;;;;;;3.25;0.43;;;;;;;;;;5075788;28;20440;-81
2022/04/07 13:35:48;;;;;;;0.30;0.30;;;;;;;;;;5070118;28;20024;-82
2022/04/07 13:38:13;;;;;;;0.85;0.30;;;;;;;;;;5072406;28;20020;-82
2022/04/07 13:40:39;;;;;;;0.20;0.20;;;;;;;;;;5077893;28;20126;-82
2022/04/07 13:43:04;;;;;;;0.38;0.25;;;;;;;;;;5078376;28;20029;-81
2022/04/07 13:45:30;;;;;;;0.30;0.30;;;;;;;;;;5078551;28;20050;-81
2022/04/07 13:47:55;;;;;;;1.33;0.50;;;;;;;;;;5077911;28;20032;-83
2022/04/07 13:50:20;;;;;;;0.30;0.30;;;;;;;;;;5076511;28;20028;-81
2022/04/07 13:52:46;;;;;;;0.25;0.25;;;;;;;;;;5078488;28;20025;-81
2022/04/07 13:55:11;;;;;;;0.22;0.22;;;;;;;;;;5075985;28;20028;-81
2022/04/07 13:57:36;;;;;;;0.90;0.30;;;;;;;;;;5058643;28;20032;-80
2022/04/07 14:00:02;;;;;;;0.47;0.30;;;;;;;;;;5057425;28;20055;-81
2022/04/07 14:02:29;;;;;;;0.30;0.30;;;;;;;;;;5056698;28;20496;-81
2022/04/07 14:04:55;;;;;;;0.60;0.35;;;;;;;;;;5057143;28;20051;-80
2022/04/07 14:07:20;;;;;;;0.30;0.30;;;;;;;;;;5061563;28;20029;-81
2022/04/07 14:09:45;;;;;;;0.25;0.25;;;;;;;;;;5057751;28;20067;-81
2022/04/07 14:12:11;;;;;;;1.35;0.57;;;;;;;;;;5056666;28;20087;-80
2022/04/07 14:14:36;;;;;;;0.28;0.28;;;;;;;;;;5057720;28;20100;-82
2022/04/07 14:17:01;;;;;;;0.35;0.35;;;;;;;;;;5057979;28;20028;-81
2022/04/07 14:19:27;;;;;;;0.38;0.38;;;;;;;;;;5056248;28;20112;-82
2022/04/07 14:21:52;;;;;;;0.35;0.35;;;;;;;;;;5064033;28;20029;-81
2022/04/07 14:24:18;;;;;;;0.30;0.30;;;;;;;;;;5069270;28;20020;-80
2022/04/07 14:26:43;;;;;;;0.40;0.40;;;;;;;;;;5059493;28;20033;-81
2022/04/07 14:29:09;;;;;;;0.38;0.25;;;;;;;;;;5048805;28;20049;-82
2022/04/07 14:31:36;;;;;;;0.20;0.20;;;;;;;;;;5040967;28;20044;-81
2022/04/07 14:34:03;;;;;;;0.43;0.43;;;;;;;;;;5061222;28;20455;-81
2022/04/07 14:36:28;;;;;;;0.20;0.20;;;;;;;;;;5051852;28;20025;-81
2022/04/07 14:38:54;;;;;;;0.20;0.20;;;;;;;;;;5072157;28;20099;-81
2022/04/07 14:41:19;;;;;;;0.32;0.32;;;;;;;;;;5061988;28;20498;-81
2022/04/07 14:43:44;;;;;;;0.15;0.15;;;;;;;;;;5061871;28;20032;-81